Lindenwald, Ohio
Current Conditions -  °F | °C
As of 3:53 PM on Sunday 23 Nov 2014 (Local Time) from KHAO Reporting Station
Light Rain Light Rain  
Wind Chill: 57°   Ceiling: 10000
Heat Index: 57°   Visibility: 8mi
Dew Point: 50°   Wind: 6mph
Humidity: 77%   Direction: NA
Pressure: 29.65"   Gusts: NA
Location:  39.3622°N, 84.5372°W
Report Text: KHAO 232053Z AUTO VRB05KT 8SM -RA FEW048 OVC100 14/10 A2965 RMK AO2 RAE10B29 SLP039 P0001 60001 T01390100 56049
Loading
Personal Weather Stations






























Interactive Weather Map New forecast layout! Learn more

10-Day Weather Forecast

Advertisements
Track Severe Weather on mobile